»·PEaware :: WAT175 KSAN-KLAS

WAT175 :: KSAN-KLAS

FLIGHT INFORMATION

Flight Status: Arrived
Operator:
Walker Air Transport
More flights by this operator :: More flights under this callsign
Pilot: Michael C. (27126)
Aircraft: BOEING 737-800
(B738)
More flights by this aircraft type
Origin: KSAN San Diego Intl-Lindbergh
United States
Destination: KLAS McCarran Intl
United States
More flights between these airports :: More routes between these airports
Route: PADRZ2 CHKNN SEBBY YELAH MISEN KEPEC6
File this flight plan on PilotEdge
Remarks: RMK / SIMBRIEF
Altitude:
(Current/Filed)
29,000ft
Speed:
(Current/Filed)
436kts
Departed: 13-Jun-20 08:10 PM
Arrived: 13-Jun-20 09:04 PM
Distance/Time
Traveled:
225nm/0:54
Distance/Time
To Go:
Arrived

Flight Plot

Page will automatically refresh every two minutes.

Flight plan parsing failed; only flown route is shown


Map Options




Map Legend


Flown Route
Filed Route
Departure Airport
Arrival Airport
Navaid (VOR, NDB)
Fix

Horizontal Profiles

Position Reports

Time Latitude Longitude Heading Altitude Ground
Speed
13-Jun-20 19:43 32.732556 -117.195478 311 25ft 0kts
13-Jun-20 19:45 32.732556 -117.195478 311 25ft 0kts
13-Jun-20 19:46 32.732556 -117.195478 311 25ft 0kts
13-Jun-20 19:47 32.732556 -117.195478 311 25ft 0kts
13-Jun-20 19:48 32.732556 -117.195478 311 25ft 0kts
13-Jun-20 19:49 32.732556 -117.195478 311 25ft 0kts
13-Jun-20 19:50 32.732556 -117.195478 311 25ft 0kts
13-Jun-20 19:51 32.732556 -117.195478 311 25ft 0kts
13-Jun-20 19:52 32.732556 -117.195478 311 25ft 0kts
13-Jun-20 19:53 32.732556 -117.195478 311 25ft 0kts
13-Jun-20 19:54 32.732556 -117.195478 311 25ft 0kts
13-Jun-20 19:55 32.732556 -117.195478 311 25ft 0kts
13-Jun-20 19:56 32.732556 -117.195478 311 25ft 0kts
13-Jun-20 19:57 32.732556 -117.195478 311 25ft 0kts
13-Jun-20 19:58 32.732556 -117.195478 311 25ft 0kts
13-Jun-20 19:59 32.732555 -117.195478 311 25ft 0kts
13-Jun-20 20:00 32.732239 -117.194973 306 25ft 1kts
13-Jun-20 20:01 32.732057 -117.194961 31 25ft 0kts
13-Jun-20 20:02 32.732057 -117.194961 31 25ft 0kts
13-Jun-20 20:03 32.732943 -117.191276 105 25ft 33kts
13-Jun-20 20:03 32.731358 -117.184724 106 25ft 24kts
13-Jun-20 20:05 32.729874 -117.178663 106 25ft 0kts
13-Jun-20 20:05 32.729779 -117.178307 107 25ft 1kts
13-Jun-20 20:06 32.729496 -117.177175 93 25ft 0kts
13-Jun-20 20:07 32.730272 -117.176154 289 25ft 0kts
13-Jun-20 20:08 32.730403 -117.176620 288 25ft 27kts
13-Jun-20 20:09 32.744240 -117.221150 302 1765ft 173kts
13-Jun-20 20:10 32.773869 -117.273620 304 3747ft 230kts
13-Jun-20 20:11 32.811960 -117.338085 307 7287ft 245kts
13-Jun-20 20:12 32.856834 -117.407090 306 10031ft 284kts
13-Jun-20 20:13 32.911323 -117.491673 306 11956ft 341kts
13-Jun-20 20:14 32.977817 -117.582487 311 14083ft 376kts
13-Jun-20 20:15 33.050511 -117.676050 311 16647ft 390kts
13-Jun-20 20:16 33.113768 -117.757828 311 18647ft 399kts
13-Jun-20 20:17 33.191074 -117.855631 315 20896ft 404kts
13-Jun-20 20:18 33.279481 -117.944793 318 22565ft 422kts
13-Jun-20 20:19 33.371514 -118.035116 318 24300ft 433kts
13-Jun-20 20:20 33.465656 -118.127366 318 26303ft 433kts
13-Jun-20 20:21 33.558072 -118.212996 324 28749ft 420kts
13-Jun-20 20:22 33.661794 -118.280530 330 28987ft 433kts
13-Jun-20 20:23 33.778311 -118.269119 29 28958ft 464kts
13-Jun-20 20:24 33.862724 -118.157363 50 28952ft 473kts
13-Jun-20 20:25 33.928120 -118.050107 51 28944ft 489kts
13-Jun-20 20:26 33.990156 -117.946289 51 28950ft 500kts
13-Jun-20 20:27 34.070119 -117.811166 51 28967ft 498kts
13-Jun-20 20:28 34.153678 -117.684214 47 28966ft 497kts
13-Jun-20 20:29 34.242096 -117.554500 47 28969ft 497kts
13-Jun-20 20:30 34.330174 -117.425212 47 28966ft 496kts
13-Jun-20 20:31 34.417698 -117.296405 47 28969ft 495kts
13-Jun-20 20:32 34.505529 -117.166732 47 28966ft 496kts
13-Jun-20 20:33 34.592945 -117.037157 48 28942ft 496kts
13-Jun-20 20:34 34.680385 -116.907065 48 28882ft 498kts
13-Jun-20 20:35 34.764724 -116.780989 48 28863ft 446kts
13-Jun-20 20:36 34.843784 -116.665238 43 28862ft 450kts
13-Jun-20 20:37 34.935439 -116.566760 34 27521ft 430kts
13-Jun-20 20:38 35.029823 -116.474721 34 25471ft 433kts
13-Jun-20 20:39 35.119693 -116.380684 41 23871ft 416kts
13-Jun-20 20:40 35.202460 -116.278289 42 23817ft 424kts
13-Jun-20 20:41 35.283504 -116.176904 43 21857ft 411kts
13-Jun-20 20:42 35.362239 -116.077946 43 19859ft 400kts
13-Jun-20 20:43 35.438527 -115.981634 44 18032ft 385kts
13-Jun-20 20:44 35.513653 -115.886484 44 16747ft 385kts
13-Jun-20 20:45 35.587000 -115.793355 44 14781ft 375kts
13-Jun-20 20:46 35.658342 -115.702504 44 13164ft 354kts
13-Jun-20 20:47 35.725044 -115.624895 32 13018ft 313kts
13-Jun-20 20:48 35.800544 -115.563219 31 13024ft 328kts
13-Jun-20 20:49 35.876665 -115.501196 31 13020ft 327kts
13-Jun-20 20:50 35.951731 -115.439983 31 12131ft 320kts
13-Jun-20 20:51 36.016338 -115.370064 59 11001ft 305kts
13-Jun-20 20:52 36.024051 -115.271439 98 9890ft 293kts
13-Jun-20 20:53 36.016369 -115.170411 97 8375ft 291kts
13-Jun-20 20:54 36.010132 -115.078000 97 7833ft 262kts
13-Jun-20 20:55 36.004821 -114.988406 97 6224ft 259kts
13-Jun-20 20:56 35.999595 -114.900616 97 5423ft 245kts
13-Jun-20 20:57 36.044414 -114.855478 356 5103ft 246kts
13-Jun-20 20:58 36.077075 -114.903712 258 4899ft 222kts
13-Jun-20 20:59 36.073474 -114.974094 270 4561ft 186kts
13-Jun-20 21:00 36.073613 -115.029945 269 3674ft 150kts
13-Jun-20 21:01 36.073640 -115.079342 269 2891ft 149kts
13-Jun-20 21:02 36.073664 -115.130297 269 2144ft 149kts
13-Jun-20 21:03 36.074449 -115.150003 299 2121ft 0kts
13-Jun-20 21:04 36.077974 -115.152924 335 2121ft 25kts
13-Jun-20 21:05 36.080973 -115.150956 78 2121ft 15kts
13-Jun-20 21:06 36.080304 -115.147339 65 2121ft 0kts
13-Jun-20 21:07 36.080304 -115.147339 65 2121ft 0kts

Navigation Log

Ident Type
Flight plan parsing failed, navigation log unavailable